sensor_id;sensor_type;location;lat;lon;timestamp;temperature;humidity
66594;DHT22;53450;42.584;23.366;2022-12-24T00:01:44;0.42;85.83
66594;DHT22;53450;42.584;23.366;2022-12-24T00:04:11;0.46;86.10
66594;DHT22;53450;42.584;23.366;2022-12-24T00:06:37;0.58;85.52
66594;DHT22;53450;42.584;23.366;2022-12-24T00:09:03;0.55;84.47
66594;DHT22;53450;42.584;23.366;2022-12-24T00:11:28;0.38;84.53
66594;DHT22;53450;42.584;23.366;2022-12-24T00:13:54;0.35;85.01
66594;DHT22;53450;42.584;23.366;2022-12-24T00:16:20;0.35;85.37
66594;DHT22;53450;42.584;23.366;2022-12-24T00:18:45;0.44;85.30
66594;DHT22;53450;42.584;23.366;2022-12-24T00:21:11;0.55;85.22
66594;DHT22;53450;42.584;23.366;2022-12-24T00:23:36;0.59;85.16
66594;DHT22;53450;42.584;23.366;2022-12-24T00:26:02;0.65;85.16
66594;DHT22;53450;42.584;23.366;2022-12-24T00:28:28;0.63;84.69
66594;DHT22;53450;42.584;23.366;2022-12-24T00:30:53;0.55;84.94
66594;DHT22;53450;42.584;23.366;2022-12-24T00:33:19;0.63;85.29
66594;DHT22;53450;42.584;23.366;2022-12-24T00:35:49;0.79;84.64
66594;DHT22;53450;42.584;23.366;2022-12-24T00:38:15;0.77;84.58
66594;DHT22;53450;42.584;23.366;2022-12-24T00:40:41;0.84;84.19
66594;DHT22;53450;42.584;23.366;2022-12-24T00:43:06;0.79;83.97
66594;DHT22;53450;42.584;23.366;2022-12-24T00:45:32;0.79;84.13
66594;DHT22;53450;42.584;23.366;2022-12-24T00:47:58;0.72;84.08
66594;DHT22;53450;42.584;23.366;2022-12-24T00:50:23;0.65;84.13
66594;DHT22;53450;42.584;23.366;2022-12-24T00:52:49;0.60;84.41
66594;DHT22;53450;42.584;23.366;2022-12-24T00:55:14;0.59;84.79
66594;DHT22;53450;42.584;23.366;2022-12-24T00:57:40;0.59;84.64
66594;DHT22;53450;42.584;23.366;2022-12-24T01:00:06;0.62;84.80
66594;DHT22;53450;42.584;23.366;2022-12-24T01:02:33;0.67;84.16
66594;DHT22;53450;42.584;23.366;2022-12-24T01:05:24;0.58;84.33
66594;DHT22;53450;42.584;23.366;2022-12-24T01:08:15;0.50;84.69
66594;DHT22;53450;42.584;23.366;2022-12-24T01:10:40;0.50;84.87
66594;DHT22;53450;42.584;23.366;2022-12-24T01:13:06;0.53;84.79
66594;DHT22;53450;42.584;23.366;2022-12-24T01:15:31;0.49;84.84
66594;DHT22;53450;42.584;23.366;2022-12-24T01:17:57;0.45;84.79
66594;DHT22;53450;42.584;23.366;2022-12-24T01:20:23;0.44;84.96
66594;DHT22;53450;42.584;23.366;2022-12-24T01:22:51;0.39;84.94
66594;DHT22;53450;42.584;23.366;2022-12-24T01:25:17;0.37;84.95
66594;DHT22;53450;42.584;23.366;2022-12-24T01:27:42;0.30;85.07
66594;DHT22;53450;42.584;23.366;2022-12-24T01:30:12;0.30;85.35
66594;DHT22;53450;42.584;23.366;2022-12-24T01:32:39;0.38;85.24
66594;DHT22;53450;42.584;23.366;2022-12-24T01:35:04;0.33;85.19
66594;DHT22;53450;42.584;23.366;2022-12-24T01:37:30;0.37;85.50
66594;DHT22;53450;42.584;23.366;2022-12-24T01:39:56;0.42;84.89
66594;DHT22;53450;42.584;23.366;2022-12-24T01:43:15;0.37;84.89
66594;DHT22;53450;42.584;23.366;2022-12-24T01:46:19;0.30;84.94
66594;DHT22;53450;42.584;23.366;2022-12-24T01:51:32;0.33;85.12
66594;DHT22;53450;42.584;23.366;2022-12-24T01:56:29;0.30;84.79
66594;DHT22;53450;42.584;23.366;2022-12-24T01:59:02;0.26;85.06
66594;DHT22;53450;42.584;23.366;2022-12-24T02:01:28;0.28;85.11
66594;DHT22;53450;42.584;23.366;2022-12-24T02:03:54;0.30;84.72
66594;DHT22;53450;42.584;23.366;2022-12-24T02:06:20;0.28;84.91
66594;DHT22;53450;42.584;23.366;2022-12-24T02:08:46;0.24;85.08
66594;DHT22;53450;42.584;23.366;2022-12-24T02:11:20;0.21;84.93
66594;DHT22;53450;42.584;23.366;2022-12-24T02:13:54;0.17;85.13
66594;DHT22;53450;42.584;23.366;2022-12-24T02:27:16;0.01;84.86
66594;DHT22;53450;42.584;23.366;2022-12-24T02:35:53;-0.02;85.28
66594;DHT22;53450;42.584;23.366;2022-12-24T02:38:28;-0.02;85.14
66594;DHT22;53450;42.584;23.366;2022-12-24T02:41:22;0.01;85.27
66594;DHT22;53450;42.584;23.366;2022-12-24T02:43:50;0.08;85.35
66594;DHT22;53450;42.584;23.366;2022-12-24T02:46:20;0.05;85.14
66594;DHT22;53450;42.584;23.366;2022-12-24T02:48:47;0.08;85.28
66594;DHT22;53450;42.584;23.366;2022-12-24T02:51:13;0.04;85.25
66594;DHT22;53450;42.584;23.366;2022-12-24T02:53:39;0.04;85.49
66594;DHT22;53450;42.584;23.366;2022-12-24T03:05:35;-0.03;85.25
66594;DHT22;53450;42.584;23.366;2022-12-24T03:07:35;-0.03;85.45
66594;DHT22;53450;42.584;23.366;2022-12-24T03:10:08;-0.05;85.39
66594;DHT22;53450;42.584;23.366;2022-12-24T03:12:43;-0.07;85.60
66594;DHT22;53450;42.584;23.366;2022-12-24T03:15:11;-0.07;85.78
66594;DHT22;53450;42.584;23.366;2022-12-24T03:17:39;-0.06;85.94
66594;DHT22;53450;42.584;23.366;2022-12-24T03:20:07;-0.07;86.19
66594;DHT22;53450;42.584;23.366;2022-12-24T03:22:35;0.01;85.77
66594;DHT22;53450;42.584;23.366;2022-12-24T03:25:01;0.02;85.43
66594;DHT22;53450;42.584;23.366;2022-12-24T03:27:29;-0.02;85.20
66594;DHT22;53450;42.584;23.366;2022-12-24T03:29:55;-0.02;85.56
66594;DHT22;53450;42.584;23.366;2022-12-24T03:32:31;-0.05;85.70
66594;DHT22;53450;42.584;23.366;2022-12-24T03:35:22;0.14;86.03
66594;DHT22;53450;42.584;23.366;2022-12-24T03:38:13;0.14;85.87
66594;DHT22;53450;42.584;23.366;2022-12-24T03:40:39;0.15;85.93
66594;DHT22;53450;42.584;23.366;2022-12-24T03:43:04;0.11;85.85
66594;DHT22;53450;42.584;23.366;2022-12-24T03:45:30;0.07;85.86
66594;DHT22;53450;42.584;23.366;2022-12-24T03:47:55;0.11;86.18
66594;DHT22;53450;42.584;23.366;2022-12-24T03:50:21;0.11;86.18
66594;DHT22;53450;42.584;23.366;2022-12-24T03:52:46;0.08;86.09
66594;DHT22;53450;42.584;23.366;2022-12-24T03:55:12;0.09;86.16
66594;DHT22;53450;42.584;23.366;2022-12-24T03:57:37;0.05;86.23
66594;DHT22;53450;42.584;23.366;2022-12-24T04:00:04;-0.02;86.18
66594;DHT22;53450;42.584;23.366;2022-12-24T04:02:37;0.01;86.48
66594;DHT22;53450;42.584;23.366;2022-12-24T04:05:03;-0.02;86.43
66594;DHT22;53450;42.584;23.366;2022-12-24T04:07:28;-0.03;86.39
66594;DHT22;53450;42.584;23.366;2022-12-24T04:09:54;-0.09;86.47
66594;DHT22;53450;42.584;23.366;2022-12-24T04:12:20;-0.09;86.58
66594;DHT22;53450;42.584;23.366;2022-12-24T04:14:45;-0.09;86.68
66594;DHT22;53450;42.584;23.366;2022-12-24T04:17:11;-0.10;86.59
66594;DHT22;53450;42.584;23.366;2022-12-24T04:19:36;-0.12;86.89
66594;DHT22;53450;42.584;23.366;2022-12-24T04:22:02;-0.09;86.96
66594;DHT22;53450;42.584;23.366;2022-12-24T04:24:28;-0.13;86.83
66594;DHT22;53450;42.584;23.366;2022-12-24T04:27:18;-0.09;86.70
66594;DHT22;53450;42.584;23.366;2022-12-24T04:29:43;-0.07;86.72
66594;DHT22;53450;42.584;23.366;2022-12-24T04:32:09;-0.03;86.73
66594;DHT22;53450;42.584;23.366;2022-12-24T04:34:35;-0.05;86.67
66594;DHT22;53450;42.584;23.366;2022-12-24T04:37:01;-0.02;86.77
66594;DHT22;53450;42.584;23.366;2022-12-24T04:39:27;-0.07;86.73
66594;DHT22;53450;42.584;23.366;2022-12-24T04:41:52;-0.06;86.77
66594;DHT22;53450;42.584;23.366;2022-12-24T04:44:18;-0.09;86.82
66594;DHT22;53450;42.584;23.366;2022-12-24T04:46:44;-0.13;87.02
66594;DHT22;53450;42.584;23.366;2022-12-24T04:49:09;-0.13;87.31
66594;DHT22;53450;42.584;23.366;2022-12-24T04:51:35;-0.13;87.39
66594;DHT22;53450;42.584;23.366;2022-12-24T04:54:01;-0.07;87.66
66594;DHT22;53450;42.584;23.366;2022-12-24T04:56:29;-0.05;87.44
66594;DHT22;53450;42.584;23.366;2022-12-24T04:58:55;-0.03;87.09
66594;DHT22;53450;42.584;23.366;2022-12-24T05:01:25;-0.07;86.80
66594;DHT22;53450;42.584;23.366;2022-12-24T05:03:51;-0.06;87.07
66594;DHT22;53450;42.584;23.366;2022-12-24T05:06:20;-0.07;86.79
66594;DHT22;53450;42.584;23.366;2022-12-24T05:08:45;-0.12;86.99
66594;DHT22;53450;42.584;23.366;2022-12-24T05:11:11;-0.06;86.74
66594;DHT22;53450;42.584;23.366;2022-12-24T05:13:43;-0.12;86.76
66594;DHT22;53450;42.584;23.366;2022-12-24T05:16:10;-0.16;86.85
66594;DHT22;53450;42.584;23.366;2022-12-24T05:18:36;-0.14;86.83
66594;DHT22;53450;42.584;23.366;2022-12-24T05:21:02;-0.23;87.02
66594;DHT22;53450;42.584;23.366;2022-12-24T05:23:31;-0.26;87.17
66594;DHT22;53450;42.584;23.366;2022-12-24T05:28:53;-0.34;87.67
66594;DHT22;53450;42.584;23.366;2022-12-24T05:31:21;-0.29;87.87
66594;DHT22;53450;42.584;23.366;2022-12-24T05:33:47;-0.26;88.08
66594;DHT22;53450;42.584;23.366;2022-12-24T05:36:13;-0.19;88.47
66594;DHT22;53450;42.584;23.366;2022-12-24T05:38:39;-0.07;88.73
66594;DHT22;53450;42.584;23.366;2022-12-24T05:41:04;0.02;88.81
66594;DHT22;53450;42.584;23.366;2022-12-24T05:43:30;0.14;88.73
66594;DHT22;53450;42.584;23.366;2022-12-24T05:46:00;0.19;88.59
66594;DHT22;53450;42.584;23.366;2022-12-24T05:48:27;0.26;88.44
66594;DHT22;53450;42.584;23.366;2022-12-24T05:50:53;0.26;87.95
66594;DHT22;53450;42.584;23.366;2022-12-24T05:53:19;0.25;87.96
66594;DHT22;53450;42.584;23.366;2022-12-24T05:55:45;0.28;88.02
66594;DHT22;53450;42.584;23.366;2022-12-24T05:58:11;0.29;88.10
66594;DHT22;53450;42.584;23.366;2022-12-24T06:00:37;0.33;88.08
66594;DHT22;53450;42.584;23.366;2022-12-24T06:03:02;0.44;88.03
66594;DHT22;53450;42.584;23.366;2022-12-24T06:05:28;0.45;87.92
66594;DHT22;53450;42.584;23.366;2022-12-24T06:07:54;0.55;87.51
66594;DHT22;53450;42.584;23.366;2022-12-24T06:10:20;0.53;87.26
66594;DHT22;53450;42.584;23.366;2022-12-24T06:12:45;0.60;87.32
66594;DHT22;53450;42.584;23.366;2022-12-24T06:15:11;0.65;86.92
66594;DHT22;53450;42.584;23.366;2022-12-24T06:17:37;0.66;86.97
66594;DHT22;53450;42.584;23.366;2022-12-24T06:20:03;0.75;87.12
66594;DHT22;53450;42.584;23.366;2022-12-24T06:22:28;0.76;86.30
66594;DHT22;53450;42.584;23.366;2022-12-24T06:24:54;0.75;86.33
66594;DHT22;53450;42.584;23.366;2022-12-24T06:27:20;0.73;86.31
66594;DHT22;53450;42.584;23.366;2022-12-24T06:29:46;0.69;86.09
66594;DHT22;53450;42.584;23.366;2022-12-24T06:32:11;0.69;86.17
66594;DHT22;53450;42.584;23.366;2022-12-24T06:34:37;0.69;85.20
66594;DHT22;53450;42.584;23.366;2022-12-24T06:37:03;0.72;85.00
66594;DHT22;53450;42.584;23.366;2022-12-24T06:39:28;0.69;83.88
66594;DHT22;53450;42.584;23.366;2022-12-24T06:41:54;0.72;85.48
66594;DHT22;53450;42.584;23.366;2022-12-24T06:44:20;0.70;85.69
66594;DHT22;53450;42.584;23.366;2022-12-24T06:46:45;0.63;85.78
66594;DHT22;53450;42.584;23.366;2022-12-24T06:49:11;0.65;86.31
66594;DHT22;53450;42.584;23.366;2022-12-24T06:51:36;0.70;86.15
66594;DHT22;53450;42.584;23.366;2022-12-24T06:54:03;0.70;86.66
66594;DHT22;53450;42.584;23.366;2022-12-24T06:56:53;0.77;86.41
66594;DHT22;53450;42.584;23.366;2022-12-24T06:59:19;0.81;86.23
66594;DHT22;53450;42.584;23.366;2022-12-24T07:01:44;0.94;86.56
66594;DHT22;53450;42.584;23.366;2022-12-24T07:04:10;1.10;85.67
66594;DHT22;53450;42.584;23.366;2022-12-24T07:06:36;1.28;85.56
66594;DHT22;53450;42.584;23.366;2022-12-24T07:09:01;1.44;84.88
66594;DHT22;53450;42.584;23.366;2022-12-24T07:11:27;1.63;84.98
66594;DHT22;53450;42.584;23.366;2022-12-24T07:13:53;1.82;84.58
66594;DHT22;53450;42.584;23.366;2022-12-24T07:16:19;1.90;84.29
66594;DHT22;53450;42.584;23.366;2022-12-24T07:18:45;2.07;83.54
66594;DHT22;53450;42.584;23.366;2022-12-24T07:21:35;2.21;83.97
66594;DHT22;53450;42.584;23.366;2022-12-24T07:24:01;2.35;84.05
66594;DHT22;53450;42.584;23.366;2022-12-24T07:26:27;2.42;83.96
66594;DHT22;53450;42.584;23.366;2022-12-24T07:28:53;2.47;84.42
66594;DHT22;53450;42.584;23.366;2022-12-24T07:31:18;2.57;85.15
66594;DHT22;53450;42.584;23.366;2022-12-24T07:33:44;2.69;84.26
66594;DHT22;53450;42.584;23.366;2022-12-24T07:36:16;2.68;84.60
66594;DHT22;53450;42.584;23.366;2022-12-24T07:38:42;2.69;85.36
66594;DHT22;53450;42.584;23.366;2022-12-24T07:41:08;2.89;84.61
66594;DHT22;53450;42.584;23.366;2022-12-24T07:43:36;3.10;83.95
66594;DHT22;53450;42.584;23.366;2022-12-24T07:46:02;3.17;84.03
66594;DHT22;53450;42.584;23.366;2022-12-24T07:48:28;3.23;84.47
66594;DHT22;53450;42.584;23.366;2022-12-24T07:50:55;3.38;84.65
66594;DHT22;53450;42.584;23.366;2022-12-24T07:53:22;3.58;84.54
66594;DHT22;53450;42.584;23.366;2022-12-24T07:55:47;3.75;82.67
66594;DHT22;53450;42.584;23.366;2022-12-24T07:58:16;3.86;82.92
66594;DHT22;53450;42.584;23.366;2022-12-24T08:00:42;4.05;83.03
66594;DHT22;53450;42.584;23.366;2022-12-24T08:03:18;4.16;82.86
66594;DHT22;53450;42.584;23.366;2022-12-24T08:05:47;4.40;82.08
66594;DHT22;53450;42.584;23.366;2022-12-24T08:08:20;4.57;81.63
66594;DHT22;53450;42.584;23.366;2022-12-24T08:10:46;4.85;81.37
66594;DHT22;53450;42.584;23.366;2022-12-24T08:13:12;5.02;79.80
66594;DHT22;53450;42.584;23.366;2022-12-24T08:15:46;5.22;78.90
66594;DHT22;53450;42.584;23.366;2022-12-24T08:18:15;5.35;79.10
66594;DHT22;53450;42.584;23.366;2022-12-24T08:20:41;5.42;78.93
66594;DHT22;53450;42.584;23.366;2022-12-24T08:23:14;5.53;78.06
66594;DHT22;53450;42.584;23.366;2022-12-24T08:25:44;5.54;77.73
66594;DHT22;53450;42.584;23.366;2022-12-24T08:28:12;5.53;78.02
66594;DHT22;53450;42.584;23.366;2022-12-24T08:30:43;5.56;78.50
66594;DHT22;53450;42.584;23.366;2022-12-24T08:33:09;5.38;78.26
66594;DHT22;53450;42.584;23.366;2022-12-24T08:35:35;5.40;78.48
66594;DHT22;53450;42.584;23.366;2022-12-24T08:38:01;5.39;78.46
66594;DHT22;53450;42.584;23.366;2022-12-24T08:40:33;5.26;78.95
66594;DHT22;53450;42.584;23.366;2022-12-24T08:43:01;5.25;78.59
66594;DHT22;53450;42.584;23.366;2022-12-24T08:45:27;5.40;78.58
66594;DHT22;53450;42.584;23.366;2022-12-24T08:47:53;5.53;78.18
66594;DHT22;53450;42.584;23.366;2022-12-24T08:50:18;5.49;78.52
66594;DHT22;53450;42.584;23.366;2022-12-24T08:52:44;5.60;78.50
66594;DHT22;53450;42.584;23.366;2022-12-24T08:55:12;5.63;78.22
66594;DHT22;53450;42.584;23.366;2022-12-24T08:57:38;5.78;77.61
66594;DHT22;53450;42.584;23.366;2022-12-24T09:00:04;5.89;77.08
66594;DHT22;53450;42.584;23.366;2022-12-24T09:02:34;5.87;76.26
66594;DHT22;53450;42.584;23.366;2022-12-24T09:05:00;5.89;76.42
66594;DHT22;53450;42.584;23.366;2022-12-24T09:07:25;5.90;76.79
66594;DHT22;53450;42.584;23.366;2022-12-24T09:09:51;5.94;76.92
66594;DHT22;53450;42.584;23.366;2022-12-24T09:12:17;5.94;76.87
66594;DHT22;53450;42.584;23.366;2022-12-24T09:14:42;5.97;76.89
66594;DHT22;53450;42.584;23.366;2022-12-24T09:17:08;5.94;76.66
66594;DHT22;53450;42.584;23.366;2022-12-24T09:19:33;5.95;76.50
66594;DHT22;53450;42.584;23.366;2022-12-24T09:22:00;5.89;77.06
66594;DHT22;53450;42.584;23.366;2022-12-24T09:24:26;5.81;77.31
66594;DHT22;53450;42.584;23.366;2022-12-24T09:26:52;5.84;77.35
66594;DHT22;53450;42.584;23.366;2022-12-24T09:29:17;5.83;77.20
66594;DHT22;53450;42.584;23.366;2022-12-24T09:31:43;5.93;77.15
66594;DHT22;53450;42.584;23.366;2022-12-24T09:34:09;6.00;76.31
66594;DHT22;53450;42.584;23.366;2022-12-24T09:36:35;5.97;76.77
66594;DHT22;53450;42.584;23.366;2022-12-24T09:39:00;6.14;75.74
66594;DHT22;53450;42.584;23.366;2022-12-24T09:44:21;6.14;76.10
66594;DHT22;53450;42.584;23.366;2022-12-24T09:46:53;6.25;76.09
66594;DHT22;53450;42.584;23.366;2022-12-24T09:49:24;6.31;76.36
66594;DHT22;53450;42.584;23.366;2022-12-24T09:52:06;6.42;76.62
66594;DHT22;53450;42.584;23.366;2022-12-24T09:54:51;6.39;77.16
66594;DHT22;53450;42.584;23.366;2022-12-24T09:57:29;6.48;76.68
66594;DHT22;53450;42.584;23.366;2022-12-24T10:00:34;6.43;76.88
66594;DHT22;53450;42.584;23.366;2022-12-24T10:03:26;6.70;76.11
66594;DHT22;53450;42.584;23.366;2022-12-24T10:06:26;6.81;75.38
66594;DHT22;53450;42.584;23.366;2022-12-24T10:11:55;6.81;75.57
66594;DHT22;53450;42.584;23.366;2022-12-24T10:19:55;7.15;72.72
66594;DHT22;53450;42.584;23.366;2022-12-24T10:23:01;7.15;72.03
66594;DHT22;53450;42.584;23.366;2022-12-24T10:25:37;7.31;72.20
66594;DHT22;53450;42.584;23.366;2022-12-24T10:28:16;7.48;71.61
66594;DHT22;53450;42.584;23.366;2022-12-24T10:30:46;7.55;70.57
66594;DHT22;53450;42.584;23.366;2022-12-24T10:33:25;7.72;69.66
66594;DHT22;53450;42.584;23.366;2022-12-24T10:35:57;7.78;71.25
66594;DHT22;53450;42.584;23.366;2022-12-24T10:38:23;7.86;71.24
66594;DHT22;53450;42.584;23.366;2022-12-24T10:40:51;7.93;71.37
66594;DHT22;53450;42.584;23.366;2022-12-24T10:43:20;8.09;70.52
66594;DHT22;53450;42.584;23.366;2022-12-24T10:45:49;8.17;69.08
66594;DHT22;53450;42.584;23.366;2022-12-24T10:48:21;8.27;68.37
66594;DHT22;53450;42.584;23.366;2022-12-24T10:50:58;8.37;68.83
66594;DHT22;53450;42.584;23.366;2022-12-24T10:56:31;8.31;70.89
66594;DHT22;53450;42.584;23.366;2022-12-24T10:58:56;8.09;71.71
66594;DHT22;53450;42.584;23.366;2022-12-24T11:01:43;8.16;71.63
66594;DHT22;53450;42.584;23.366;2022-12-24T11:04:18;8.03;71.13
66594;DHT22;53450;42.584;23.366;2022-12-24T11:09:31;7.91;71.77
66594;DHT22;53450;42.584;23.366;2022-12-24T11:11:58;7.78;71.70
66594;DHT22;53450;42.584;23.366;2022-12-24T11:14:32;7.80;72.11
66594;DHT22;53450;42.584;23.366;2022-12-24T11:16:58;7.86;71.47
66594;DHT22;53450;42.584;23.366;2022-12-24T11:19:38;7.82;71.24
66594;DHT22;53450;42.584;23.366;2022-12-24T11:22:07;7.69;71.31
66594;DHT22;53450;42.584;23.366;2022-12-24T11:24:37;7.59;71.82
66594;DHT22;53450;42.584;23.366;2022-12-24T11:27:26;7.44;72.03
66594;DHT22;53450;42.584;23.366;2022-12-24T11:32:43;7.48;72.38
66594;DHT22;53450;42.584;23.366;2022-12-24T11:35:30;7.35;72.35
66594;DHT22;53450;42.584;23.366;2022-12-24T11:40:43;7.54;71.14
66594;DHT22;53450;42.584;23.366;2022-12-24T11:43:18;7.47;70.96
66594;DHT22;53450;42.584;23.366;2022-12-24T11:45:53;7.76;70.62
66594;DHT22;53450;42.584;23.366;2022-12-24T11:50:55;7.87;69.88
66594;DHT22;53450;42.584;23.366;2022-12-24T11:53:25;7.79;70.03
66594;DHT22;53450;42.584;23.366;2022-12-24T11:55:58;7.73;68.92
66594;DHT22;53450;42.584;23.366;2022-12-24T11:58:44;7.45;68.15
66594;DHT22;53450;42.584;23.366;2022-12-24T12:01:18;7.39;68.67
66594;DHT22;53450;42.584;23.366;2022-12-24T12:03:48;7.41;67.96
66594;DHT22;53450;42.584;23.366;2022-12-24T12:09:02;7.42;68.58
66594;DHT22;53450;42.584;23.366;2022-12-24T12:11:32;7.36;68.73
66594;DHT22;53450;42.584;23.366;2022-12-24T12:14:33;7.38;69.19
66594;DHT22;53450;42.584;23.366;2022-12-24T12:17:17;7.62;69.51
66594;DHT22;53450;42.584;23.366;2022-12-24T12:25:56;7.79;69.23
66594;DHT22;53450;42.584;23.366;2022-12-24T12:28:34;7.82;68.25
66594;DHT22;53450;42.584;23.366;2022-12-24T12:31:21;7.85;68.50
66594;DHT22;53450;42.584;23.366;2022-12-24T12:33:58;7.78;67.96
66594;DHT22;53450;42.584;23.366;2022-12-24T12:36:59;7.79;68.48
66594;DHT22;53450;42.584;23.366;2022-12-24T12:39:30;7.89;67.40
66594;DHT22;53450;42.584;23.366;2022-12-24T12:42:14;7.94;68.08
66594;DHT22;53450;42.584;23.366;2022-12-24T12:45:21;8.06;67.40
66594;DHT22;53450;42.584;23.366;2022-12-24T12:51:25;8.11;67.70
66594;DHT22;53450;42.584;23.366;2022-12-24T12:54:21;8.21;66.84
66594;DHT22;53450;42.584;23.366;2022-12-24T12:56:55;8.13;66.30
66594;DHT22;53450;42.584;23.366;2022-12-24T13:19:06;7.97;70.17
66594;DHT22;53450;42.584;23.366;2022-12-24T13:21:44;7.78;71.77
66594;DHT22;53450;42.584;23.366;2022-12-24T13:24:16;7.62;72.49
66594;DHT22;53450;42.584;23.366;2022-12-24T13:27:16;7.49;72.99
66594;DHT22;53450;42.584;23.366;2022-12-24T13:30:33;7.38;73.45
66594;DHT22;53450;42.584;23.366;2022-12-24T13:33:13;7.36;73.66
66594;DHT22;53450;42.584;23.366;2022-12-24T13:36:23;7.28;73.89
66594;DHT22;53450;42.584;23.366;2022-12-24T13:38:56;7.28;73.91
66594;DHT22;53450;42.584;23.366;2022-12-24T13:50:11;7.36;75.25
66594;DHT22;53450;42.584;23.366;2022-12-24T13:58:43;7.11;76.33
66594;DHT22;53450;42.584;23.366;2022-12-24T14:01:15;7.07;76.48
66594;DHT22;53450;42.584;23.366;2022-12-24T14:03:57;7.00;76.63
66594;DHT22;53450;42.584;23.366;2022-12-24T14:06:27;6.91;77.07
66594;DHT22;53450;42.584;23.366;2022-12-24T14:09:06;7.25;72.76
66594;DHT22;53450;42.584;23.366;2022-12-24T14:14:37;7.58;71.87
66594;DHT22;53450;42.584;23.366;2022-12-24T14:17:24;7.65;72.03
66594;DHT22;53450;42.584;23.366;2022-12-24T14:19:55;7.61;72.99
66594;DHT22;53450;42.584;23.366;2022-12-24T14:25:15;7.44;75.16
66594;DHT22;53450;42.584;23.366;2022-12-24T14:27:51;7.32;76.16
66594;DHT22;53450;42.584;23.366;2022-12-24T14:30:31;7.25;77.03
66594;DHT22;53450;42.584;23.366;2022-12-24T14:32:57;7.18;77.92
66594;DHT22;53450;42.584;23.366;2022-12-24T14:35:37;7.10;78.93
66594;DHT22;53450;42.584;23.366;2022-12-24T14:38:15;7.08;79.58
66594;DHT22;53450;42.584;23.366;2022-12-24T14:44:28;6.94;80.78
66594;DHT22;53450;42.584;23.366;2022-12-24T14:52:47;6.76;81.58
66594;DHT22;53450;42.584;23.366;2022-12-24T14:55:50;6.60;82.24
66594;DHT22;53450;42.584;23.366;2022-12-24T15:00:52;6.60;82.81
66594;DHT22;53450;42.584;23.366;2022-12-24T15:03:21;6.54;83.34
66594;DHT22;53450;42.584;23.366;2022-12-24T15:06:08;6.62;83.13
66594;DHT22;53450;42.584;23.366;2022-12-24T15:08:51;6.52;83.42
66594;DHT22;53450;42.584;23.366;2022-12-24T15:11:19;6.57;83.52
66594;DHT22;53450;42.584;23.366;2022-12-24T15:14:24;6.42;83.55
66594;DHT22;53450;42.584;23.366;2022-12-24T15:17:00;6.46;83.05
66594;DHT22;53450;42.584;23.366;2022-12-24T15:19:33;6.36;83.39
66594;DHT22;53450;42.584;23.366;2022-12-24T15:22:07;6.32;83.33
66594;DHT22;53450;42.584;23.366;2022-12-24T15:24:36;6.36;83.28
66594;DHT22;53450;42.584;23.366;2022-12-24T15:27:37;6.33;83.50
66594;DHT22;53450;42.584;23.366;2022-12-24T15:30:15;6.31;83.79
66594;DHT22;53450;42.584;23.366;2022-12-24T15:32:41;6.20;84.59
66594;DHT22;53450;42.584;23.366;2022-12-24T15:35:29;6.21;84.62
66594;DHT22;53450;42.584;23.366;2022-12-24T15:37:57;6.15;85.05
66594;DHT22;53450;42.584;23.366;2022-12-24T15:40:26;6.15;85.27
66594;DHT22;53450;42.584;23.366;2022-12-24T15:42:52;6.20;84.98
66594;DHT22;53450;42.584;23.366;2022-12-24T15:45:20;6.10;84.36
66594;DHT22;53450;42.584;23.366;2022-12-24T15:47:55;5.98;84.73
66594;DHT22;53450;42.584;23.366;2022-12-24T15:52:55;5.81;85.39
66594;DHT22;53450;42.584;23.366;2022-12-24T15:55:26;5.78;85.66
66594;DHT22;53450;42.584;23.366;2022-12-24T15:57:55;5.74;86.05
66594;DHT22;53450;42.584;23.366;2022-12-24T16:00:26;5.70;86.45
66594;DHT22;53450;42.584;23.366;2022-12-24T16:03:18;5.69;86.73
66594;DHT22;53450;42.584;23.366;2022-12-24T16:06:01;5.69;86.92
66594;DHT22;53450;42.584;23.366;2022-12-24T16:08:31;5.77;86.87
66594;DHT22;53450;42.584;23.366;2022-12-24T16:13:40;5.83;86.00
66594;DHT22;53450;42.584;23.366;2022-12-24T16:16:14;5.73;85.33
66594;DHT22;53450;42.584;23.366;2022-12-24T16:18:54;5.62;85.90
66594;DHT22;53450;42.584;23.366;2022-12-24T16:21:38;5.56;86.75
66594;DHT22;53450;42.584;23.366;2022-12-24T16:24:09;5.69;86.53
66594;DHT22;53450;42.584;23.366;2022-12-24T16:26:37;5.71;86.65
66594;DHT22;53450;42.584;23.366;2022-12-24T16:29:09;5.70;86.76
66594;DHT22;53450;42.584;23.366;2022-12-24T16:31:37;5.81;85.94
66594;DHT22;53450;42.584;23.366;2022-12-24T16:34:04;5.84;85.90
66594;DHT22;53450;42.584;23.366;2022-12-24T16:36:55;5.90;86.05
66594;DHT22;53450;42.584;23.366;2022-12-24T16:39:32;5.91;85.44
66594;DHT22;53450;42.584;23.366;2022-12-24T16:42:01;6.00;85.33
66594;DHT22;53450;42.584;23.366;2022-12-24T16:44:46;5.95;85.29
66594;DHT22;53450;42.584;23.366;2022-12-24T16:47:28;5.97;85.85
66594;DHT22;53450;42.584;23.366;2022-12-24T16:49:59;6.01;84.93
66594;DHT22;53450;42.584;23.366;2022-12-24T16:52:27;6.08;84.88
66594;DHT22;53450;42.584;23.366;2022-12-24T16:54:54;6.01;85.08
66594;DHT22;53450;42.584;23.366;2022-12-24T16:57:21;6.00;85.94
66594;DHT22;53450;42.584;23.366;2022-12-24T16:59:50;6.11;86.14
66594;DHT22;53450;42.584;23.366;2022-12-24T17:02:19;6.22;86.44
66594;DHT22;53450;42.584;23.366;2022-12-24T17:05:11;6.38;86.46
66594;DHT22;53450;42.584;23.366;2022-12-24T17:08:05;6.53;85.98
66594;DHT22;53450;42.584;23.366;2022-12-24T17:10:56;6.68;85.87
66594;DHT22;53450;42.584;23.366;2022-12-24T17:13:22;6.75;85.78
66594;DHT22;53450;42.584;23.366;2022-12-24T17:15:48;6.75;85.77
66594;DHT22;53450;42.584;23.366;2022-12-24T17:18:14;6.83;85.62
66594;DHT22;53450;42.584;23.366;2022-12-24T17:20:41;6.87;85.47
66594;DHT22;53450;42.584;23.366;2022-12-24T17:23:07;6.90;85.75
66594;DHT22;53450;42.584;23.366;2022-12-24T17:25:34;6.99;86.02
66594;DHT22;53450;42.584;23.366;2022-12-24T17:28:00;7.03;85.94
66594;DHT22;53450;42.584;23.366;2022-12-24T17:30:28;7.10;85.84
66594;DHT22;53450;42.584;23.366;2022-12-24T17:32:54;7.10;85.93
66594;DHT22;53450;42.584;23.366;2022-12-24T17:35:19;7.11;86.34
66594;DHT22;53450;42.584;23.366;2022-12-24T17:37:45;6.97;86.21
66594;DHT22;53450;42.584;23.366;2022-12-24T17:40:11;7.00;86.53
66594;DHT22;53450;42.584;23.366;2022-12-24T17:42:36;7.01;86.62
66594;DHT22;53450;42.584;23.366;2022-12-24T17:45:02;7.03;86.69
66594;DHT22;53450;42.584;23.366;2022-12-24T17:47:28;7.01;86.53
66594;DHT22;53450;42.584;23.366;2022-12-24T17:49:54;7.05;86.55
66594;DHT22;53450;42.584;23.366;2022-12-24T17:52:20;7.04;86.58
66594;DHT22;53450;42.584;23.366;2022-12-24T17:54:45;7.07;86.59
66594;DHT22;53450;42.584;23.366;2022-12-24T17:57:11;7.08;85.89
66594;DHT22;53450;42.584;23.366;2022-12-24T17:59:37;7.15;85.61
66594;DHT22;53450;42.584;23.366;2022-12-24T18:02:05;7.21;85.12
66594;DHT22;53450;42.584;23.366;2022-12-24T18:04:31;7.35;84.74